Time;durP1;ratioP1;P1;durP2;ratioP2;P2;SDS_P1;SDS_P2;PMS_P1;PMS_P2;Temp;Humidity;BMP_temperature;BMP_pressure;BME280_temperature;BME280_humidity;BME280_pressure;Samples;Min_cycle;Max_cycle;Signal;HPM_P1;HPM_P2
2023/10/05 00:02:23;;;;;;;10.30;2.45;;;15.30;99.90;;;;;;5048621;28;36490;-79
2023/10/05 00:04:42;;;;;;;9.90;2.38;;;15.30;99.90;;;;;;5060604;28;48425;-79
2023/10/05 00:07:10;;;;;;;9.55;2.03;;;15.30;99.90;;;;;;5044122;28;37844;-79
2023/10/05 00:09:40;;;;;;;9.77;2.22;;;15.30;99.90;;;;;;5068707;28;39555;-79
2023/10/05 00:12:08;;;;;;;12.82;2.10;;;15.30;99.90;;;;;;5056575;28;37984;-79
2023/10/05 00:14:35;;;;;;;11.85;2.20;;;15.30;99.90;;;;;;5068051;28;38684;-79
2023/10/05 00:17:06;;;;;;;10.95;2.63;;;15.30;99.90;;;;;;5043832;28;38649;-79
2023/10/05 00:19:35;;;;;;;8.48;2.10;;;15.40;99.90;;;;;;5043901;28;37575;-79
2023/10/05 00:22:02;;;;;;;12.05;2.13;;;15.40;99.90;;;;;;5063625;28;37124;-79
2023/10/05 00:26:58;;;;;;;12.18;2.35;;;15.40;99.90;;;;;;5064566;28;39159;-80
2023/10/05 00:29:45;;;;;;;13.95;2.53;;;15.50;99.90;;;;;;5048050;28;37645;-80
2023/10/05 00:32:15;;;;;;;9.50;2.08;;;15.50;99.90;;;;;;5050938;28;37474;-80
2023/10/05 00:34:43;;;;;;;8.20;2.88;;;15.50;99.90;;;;;;5066319;28;38546;-80
2023/10/05 00:37:10;;;;;;;5.60;1.90;;;15.50;99.90;;;;;;5061862;28;39280;-80
2023/10/05 00:39:37;;;;;;;11.10;2.15;;;15.50;99.90;;;;;;5067806;28;38411;-80
2023/10/05 00:44:35;;;;;;;10.50;2.38;;;15.50;99.90;;;;;;5067407;28;39987;-81
2023/10/05 00:47:06;;;;;;;9.18;2.38;;;15.50;99.90;;;;;;5043764;28;37646;-80
2023/10/05 00:49:51;;;;;;;9.80;2.17;;;15.50;99.90;;;;;;5051507;28;37598;-81
2023/10/05 00:52:24;;;;;;;7.03;2.15;;;15.50;99.90;;;;;;5065769;28;37058;-81
2023/10/05 00:54:53;;;;;;;11.25;2.35;;;15.50;99.90;;;;;;5061753;28;40372;-80
2023/10/05 00:57:22;;;;;;;12.73;2.33;;;15.60;99.90;;;;;;5044966;28;38559;-80
2023/10/05 01:02:45;;;;;;;9.93;2.45;;;15.50;99.90;;;;;;5049719;28;37187;-81
2023/10/05 01:05:16;;;;;;;8.85;1.85;;;15.50;99.90;;;;;;5062479;28;39214;-81
2023/10/05 01:07:43;;;;;;;8.88;2.25;;;15.50;99.90;;;;;;5044535;28;39238;-80
2023/10/05 01:12:50;;;;;;;6.43;1.95;;;15.50;99.90;;;;;;5062694;28;37823;-81
2023/10/05 01:15:22;;;;;;;10.55;2.20;;;15.50;99.90;;;;;;5055305;28;38885;-80
2023/10/05 01:17:52;;;;;;;11.73;2.25;;;15.50;99.90;;;;;;5061431;28;38931;-81
2023/10/05 01:22:46;;;;;;;13.93;2.05;;;15.50;99.90;;;;;;5062291;28;37032;-81
2023/10/05 01:25:14;;;;;;;11.95;2.63;;;15.50;99.90;;;;;;5039915;28;38701;-80
2023/10/05 01:27:50;;;;;;;9.98;2.03;;;15.50;99.90;;;;;;5065711;28;38510;-81
2023/10/05 01:30:17;;;;;;;9.25;2.38;;;15.50;99.90;;;;;;5054177;28;37560;-81
2023/10/05 01:32:45;;;;;;;15.48;2.75;;;15.50;99.90;;;;;;5046248;28;36224;-81
2023/10/05 01:35:17;;;;;;;7.97;1.92;;;15.50;99.90;;;;;;5050443;28;37799;-81
2023/10/05 01:37:46;;;;;;;8.35;1.85;;;15.50;99.90;;;;;;5048580;28;37888;-81
2023/10/05 01:42:47;;;;;;;6.88;2.00;;;15.50;99.90;;;;;;5062442;28;38188;-81
2023/10/05 01:45:17;;;;;;;8.90;2.13;;;15.50;99.90;;;;;;5064161;28;39632;-81
2023/10/05 01:47:44;;;;;;;9.82;2.22;;;15.50;99.90;;;;;;5049520;28;38405;-81
2023/10/05 01:50:26;;;;;;;10.65;2.08;;;15.40;99.90;;;;;;5050489;28;37589;-81
2023/10/05 01:53:15;;;;;;;12.90;2.30;;;15.50;99.90;;;;;;5066582;28;36872;-81
2023/10/05 01:55:45;;;;;;;6.93;2.28;;;15.40;99.90;;;;;;5067480;28;48604;-82
2023/10/05 01:58:21;;;;;;;9.95;2.25;;;15.50;99.90;;;;;;5039218;28;38504;-80
2023/10/05 02:00:47;;;;;;;7.28;1.83;;;15.50;99.90;;;;;;5046083;28;37245;-80
2023/10/05 02:03:14;;;;;;;8.20;2.28;;;15.50;99.90;;;;;;5052176;28;37043;-80
2023/10/05 02:05:41;;;;;;;8.73;2.00;;;15.40;99.90;;;;;;5067187;28;39666;-80
2023/10/05 02:08:08;;;;;;;8.15;2.30;;;15.40;99.90;;;;;;5064599;28;40692;-80
2023/10/05 02:10:39;;;;;;;10.25;2.67;;;15.40;99.90;;;;;;5044494;28;39164;-80
2023/10/05 02:13:11;;;;;;;8.65;1.95;;;15.40;99.90;;;;;;5050994;28;36651;-80
2023/10/05 02:15:39;;;;;;;13.57;2.22;;;15.40;99.90;;;;;;5068757;28;38839;-80
2023/10/05 02:18:39;;;;;;;8.73;2.28;;;15.30;99.90;;;;;;5062350;28;38569;-80
2023/10/05 02:21:08;;;;;;;9.85;2.40;;;15.30;99.90;;;;;;5063880;28;38282;-80
2023/10/05 02:23:40;;;;;;;10.55;2.28;;;15.20;99.90;;;;;;5062438;28;48642;-80
2023/10/05 02:26:10;;;;;;;9.30;2.30;;;15.20;99.90;;;;;;5060258;28;40640;-80
2023/10/05 02:28:39;;;;;;;8.20;1.98;;;15.30;99.90;;;;;;5045311;28;38909;-80
2023/10/05 02:31:08;;;;;;;12.48;2.65;;;15.20;99.90;;;;;;5051014;28;38190;-80
2023/10/05 02:33:40;;;;;;;13.27;2.35;;;15.30;99.90;;;;;;5047671;28;36123;-80
2023/10/05 02:36:26;;;;;;;6.68;1.88;;;15.30;99.90;;;;;;5058852;28;38738;-80
2023/10/05 02:38:56;;;;;;;9.30;2.17;;;15.20;99.90;;;;;;5042637;28;37652;-80
2023/10/05 02:41:43;;;;;;;9.55;1.92;;;15.20;99.90;;;;;;5065501;28;39463;-80
2023/10/05 02:46:48;;;;;;;9.95;2.17;;;15.20;99.90;;;;;;5072349;28;39501;-80
2023/10/05 02:49:15;;;;;;;9.30;2.30;;;15.20;99.90;;;;;;5039594;28;37751;-80
2023/10/05 02:51:43;;;;;;;15.15;2.95;;;15.30;99.90;;;;;;5046719;28;37487;-79
2023/10/05 02:54:13;;;;;;;11.73;2.05;;;15.30;99.90;;;;;;5049683;28;36171;-79
2023/10/05 02:56:40;;;;;;;11.80;2.17;;;15.20;99.90;;;;;;5065623;28;39129;-79
2023/10/05 02:59:10;;;;;;;10.60;2.40;;;15.20;99.90;;;;;;5064778;28;38908;-80
2023/10/05 03:01:37;;;;;;;9.93;2.13;;;15.20;99.90;;;;;;5050679;28;36452;-80
2023/10/05 03:04:09;;;;;;;10.25;2.35;;;15.20;99.90;;;;;;5064830;28;36426;-79
2023/10/05 03:06:39;;;;;;;11.80;2.33;;;15.20;99.90;;;;;;5047339;28;39321;-80
2023/10/05 03:09:09;;;;;;;8.98;2.17;;;15.10;99.90;;;;;;5046252;28;38025;-79
2023/10/05 03:11:40;;;;;;;13.18;2.63;;;15.10;99.90;;;;;;5067177;28;37558;-80
2023/10/05 03:14:10;;;;;;;12.55;2.13;;;15.00;99.90;;;;;;5062401;28;37810;-80
2023/10/05 03:17:13;;;;;;;7.22;1.90;;;15.00;99.90;;;;;;5043193;28;37898;-80
2023/10/05 03:19:29;;;;;;;11.05;2.60;;;15.00;99.90;;;;;;5057857;28;48729;-80
2023/10/05 03:22:04;;;;;;;9.68;2.67;;;15.00;99.90;;;;;;5052273;28;37836;-80
2023/10/05 03:24:35;;;;;;;8.32;2.45;;;15.00;99.90;;;;;;5048515;28;47337;-80
2023/10/05 03:27:07;;;;;;;9.85;2.03;;;14.90;99.90;;;;;;5053667;28;37602;-79
2023/10/05 03:29:35;;;;;;;9.80;2.35;;;14.90;99.90;;;;;;5050421;28;37723;-79
2023/10/05 03:34:34;;;;;;;;;;;14.90;99.90;;;;;;5059398;28;48993;-80
2023/10/05 03:37:10;;;;;;;8.77;2.80;;;14.90;99.90;;;;;;5051543;28;38124;-79
2023/10/05 03:42:23;;;;;;;12.18;2.92;;;14.80;99.90;;;;;;5062382;28;40133;-80
2023/10/05 03:45:00;;;;;;;10.43;2.60;;;14.80;99.90;;;;;;5043432;28;35983;-79
2023/10/05 03:47:27;;;;;;;7.00;2.33;;;14.80;99.90;;;;;;5062933;28;38551;-79
2023/10/05 03:49:55;;;;;;;12.15;2.78;;;14.70;99.90;;;;;;5042926;28;38114;-79
2023/10/05 03:52:23;;;;;;;9.35;2.50;;;14.70;99.90;;;;;;5047006;28;37923;-79
2023/10/05 03:54:52;;;;;;;11.02;2.65;;;14.70;99.90;;;;;;5038469;28;36962;-80
2023/10/05 03:57:19;;;;;;;16.85;2.95;;;14.70;99.90;;;;;;5046269;28;39050;-78
2023/10/05 03:59:45;;;;;;;12.23;2.58;;;14.60;99.90;;;;;;5062692;28;39039;-78
2023/10/05 04:02:13;;;;;;;10.23;2.53;;;14.60;99.90;;;;;;5065211;28;38315;-79
2023/10/05 04:04:47;;;;;;;7.57;2.05;;;14.60;99.90;;;;;;5036670;28;36146;-79
2023/10/05 04:07:13;;;;;;;8.30;2.35;;;14.60;99.90;;;;;;5043182;28;39337;-79
2023/10/05 04:09:39;;;;;;;11.02;2.53;;;14.50;99.90;;;;;;5051495;28;37808;-77
2023/10/05 04:12:10;;;;;;;12.13;3.10;;;14.50;99.90;;;;;;5065844;28;37837;-78
2023/10/05 04:14:38;;;;;;;7.25;2.33;;;14.50;99.90;;;;;;5065982;28;37049;-79
2023/10/05 04:17:11;;;;;;;9.40;2.65;;;14.50;99.90;;;;;;5044658;28;38984;-78
2023/10/05 04:19:41;;;;;;;6.82;2.47;;;14.50;99.90;;;;;;5061215;28;37945;-79
2023/10/05 04:22:07;;;;;;;13.25;3.53;;;14.40;99.90;;;;;;5044504;28;38901;-77
2023/10/05 04:24:34;;;;;;;10.10;2.72;;;14.40;99.90;;;;;;5047274;28;36943;-78
2023/10/05 04:27:00;;;;;;;6.25;2.15;;;14.40;99.90;;;;;;5058998;28;38791;-78
2023/10/05 04:29:26;;;;;;;10.82;2.70;;;14.40;99.90;;;;;;5040872;28;39004;-79
2023/10/05 04:31:53;;;;;;;10.30;2.75;;;14.40;99.90;;;;;;5035977;28;37277;-79
2023/10/05 04:34:19;;;;;;;10.40;2.85;;;14.40;99.90;;;;;;5060104;28;37138;-80
2023/10/05 04:36:48;;;;;;;11.48;2.90;;;14.30;99.90;;;;;;5046258;28;39916;-80
2023/10/05 04:39:30;;;;;;;13.02;2.42;;;14.30;99.90;;;;;;5060036;28;38648;-79
2023/10/05 04:42:04;;;;;;;11.75;2.40;;;14.30;99.90;;;;;;5054627;28;39146;-80
2023/10/05 04:44:30;;;;;;;7.28;2.45;;;14.30;99.90;;;;;;5039896;28;47487;-80
2023/10/05 04:46:57;;;;;;;8.88;2.42;;;14.30;99.90;;;;;;5062277;28;38608;-76
2023/10/05 04:49:24;;;;;;;10.27;2.50;;;14.30;99.90;;;;;;5057549;28;38433;-80
2023/10/05 04:51:51;;;;;;;9.38;2.42;;;14.30;99.90;;;;;;5065843;28;38223;-80
2023/10/05 04:54:18;;;;;;;8.73;2.33;;;14.30;99.90;;;;;;5044050;28;36012;-80
2023/10/05 04:56:54;;;;;;;9.27;2.30;;;14.40;99.90;;;;;;5043420;28;37543;-80
2023/10/05 05:02:47;;;;;;;11.68;2.67;;;14.30;99.90;;;;;;5064225;28;40295;-80
2023/10/05 05:05:34;;;;;;;7.25;2.17;;;14.30;99.90;;;;;;5054596;28;37371;-79
2023/10/05 05:08:02;;;;;;;7.25;2.10;;;14.30;99.90;;;;;;5065667;28;38990;-79
2023/10/05 05:10:28;;;;;;;9.18;1.98;;;14.30;99.90;;;;;;5060672;28;48265;-79
2023/10/05 05:12:56;;;;;;;7.22;2.00;;;14.30;99.90;;;;;;5044006;28;40103;-79
2023/10/05 05:15:23;;;;;;;10.05;2.47;;;14.20;99.90;;;;;;5049218;28;36492;-79
2023/10/05 05:17:49;;;;;;;9.45;2.45;;;14.20;99.90;;;;;;5049537;28;38853;-78
2023/10/05 05:20:15;;;;;;;9.25;2.15;;;14.20;99.90;;;;;;5046330;28;38456;-79
2023/10/05 05:22:46;;;;;;;7.85;2.35;;;14.20;99.90;;;;;;5060775;28;38268;-79
2023/10/05 05:25:14;;;;;;;7.75;2.40;;;14.20;99.90;;;;;;5040842;28;37155;-79
2023/10/05 05:27:40;;;;;;;11.30;2.95;;;14.20;99.90;;;;;;5066153;28;38610;-78
2023/10/05 05:30:15;;;;;;;8.13;2.13;;;14.20;99.90;;;;;;5043434;28;39101;-79
2023/10/05 05:32:44;;;;;;;9.90;2.38;;;14.30;99.90;;;;;;5046201;28;37266;-79
2023/10/05 05:35:10;;;;;;;11.43;2.35;;;14.30;99.90;;;;;;5060852;28;36155;-79
2023/10/05 05:37:36;;;;;;;14.45;2.20;;;14.40;99.90;;;;;;5046889;28;37759;-79
2023/10/05 05:40:10;;;;;;;13.93;2.65;;;14.40;99.90;;;;;;5049045;28;37811;-79
2023/10/05 05:42:37;;;;;;;9.98;3.33;;;14.50;99.90;;;;;;5046399;28;46919;-80
2023/10/05 05:45:08;;;;;;;7.72;2.17;;;14.50;99.90;;;;;;5045611;28;36478;-79
2023/10/05 05:47:35;;;;;;;8.43;2.70;;;14.60;99.90;;;;;;5061791;28;47925;-79
2023/10/05 05:50:03;;;;;;;8.02;2.72;;;14.60;99.90;;;;;;5061784;28;40486;-79
2023/10/05 05:52:29;;;;;;;7.88;2.38;;;14.60;99.90;;;;;;5064241;28;39013;-80
2023/10/05 05:54:55;;;;;;;10.93;2.92;;;14.60;99.90;;;;;;5066399;28;37104;-80
2023/10/05 05:57:21;;;;;;;6.53;2.25;;;14.60;99.90;;;;;;5061847;28;40084;-80
2023/10/05 05:59:47;;;;;;;7.38;2.38;;;14.60;99.90;;;;;;5056968;28;39716;-79
2023/10/05 06:02:13;;;;;;;11.73;2.35;;;14.60;99.90;;;;;;5055860;28;38159;-79
2023/10/05 06:04:41;;;;;;;7.75;2.10;;;14.60;99.90;;;;;;5038730;28;36307;-79
2023/10/05 06:07:11;;;;;;;6.60;2.30;;;14.60;99.90;;;;;;5037845;28;38948;-79
2023/10/05 06:09:43;;;;;;;8.23;2.55;;;14.60;99.90;;;;;;5043017;28;37970;-79
2023/10/05 06:12:12;;;;;;;14.43;2.47;;;14.60;99.90;;;;;;5043413;28;37430;-79
2023/10/05 06:14:40;;;;;;;10.68;2.33;;;14.60;99.90;;;;;;5064418;28;37771;-80
2023/10/05 06:17:07;;;;;;;11.32;2.30;;;14.60;99.90;;;;;;5042605;28;38841;-79
2023/10/05 06:19:35;;;;;;;8.32;2.38;;;14.70;99.90;;;;;;5049333;28;37795;-79
2023/10/05 06:22:04;;;;;;;10.73;2.75;;;14.70;99.90;;;;;;5047945;28;38502;-79
2023/10/05 06:24:30;;;;;;;7.90;2.30;;;14.70;99.90;;;;;;5055457;28;36271;-79
2023/10/05 06:26:56;;;;;;;9.90;2.40;;;14.70;99.90;;;;;;5049489;28;37577;-81
2023/10/05 06:29:22;;;;;;;5.85;2.15;;;14.70;99.90;;;;;;5070800;28;39803;-76
2023/10/05 06:31:48;;;;;;;6.43;2.13;;;14.80;99.90;;;;;;5067191;28;38563;-80
2023/10/05 06:34:15;;;;;;;10.07;2.55;;;14.80;99.90;;;;;;5047847;28;37064;-79
2023/10/05 06:36:42;;;;;;;9.45;2.70;;;14.80;99.90;;;;;;5068258;28;38771;-79
2023/10/05 06:39:14;;;;;;;12.60;2.60;;;14.80;99.90;;;;;;5049651;28;37967;-79
2023/10/05 06:41:41;;;;;;;13.27;2.35;;;14.80;99.90;;;;;;5052342;28;37558;-79
2023/10/05 06:44:07;;;;;;;10.13;2.40;;;14.80;99.90;;;;;;5050914;28;36304;-79
2023/10/05 06:46:34;;;;;;;6.88;2.10;;;14.80;99.90;;;;;;5050752;28;38676;-79
2023/10/05 06:49:01;;;;;;;6.50;1.70;;;14.80;99.90;;;;;;5049893;28;38783;-79
2023/10/05 06:51:29;;;;;;;8.65;2.08;;;14.80;99.90;;;;;;5049700;28;47032;-79
2023/10/05 06:53:57;;;;;;;5.95;1.80;;;14.80;99.90;;;;;;5049416;28;37428;-79
2023/10/05 06:56:24;;;;;;;10.02;2.58;;;14.80;99.90;;;;;;5052186;28;38616;-78
2023/10/05 06:58:50;;;;;;;13.23;2.85;;;14.90;99.90;;;;;;5069283;28;38574;-79
2023/10/05 07:01:20;;;;;;;8.90;1.80;;;15.00;99.90;;;;;;5052851;28;37354;-79
2023/10/05 07:03:52;;;;;;;10.05;2.03;;;15.00;99.90;;;;;;5050598;28;36334;-79
2023/10/05 07:06:22;;;;;;;10.25;2.45;;;15.00;99.90;;;;;;5063162;28;40382;-79
2023/10/05 07:08:52;;;;;;;11.82;2.25;;;15.00;99.90;;;;;;5066955;28;40544;-77
2023/10/05 07:11:19;;;;;;;8.20;2.40;;;15.00;99.90;;;;;;5052102;28;38935;-77
2023/10/05 07:13:46;;;;;;;11.32;2.40;;;15.10;99.90;;;;;;5047768;28;36321;-78
2023/10/05 07:16:15;;;;;;;7.28;2.00;;;15.10;99.90;;;;;;5045832;28;38694;-76
2023/10/05 07:18:42;;;;;;;6.82;1.63;;;15.10;99.90;;;;;;5063001;28;38842;-78
2023/10/05 07:21:09;;;;;;;10.68;2.08;;;15.10;99.90;;;;;;5045017;28;37454;-78
2023/10/05 07:23:36;;;;;;;8.88;2.47;;;15.20;99.90;;;;;;5053675;28;36982;-79
2023/10/05 07:26:04;;;;;;;11.73;2.75;;;15.20;99.90;;;;;;5042876;28;38195;-78
2023/10/05 07:28:31;;;;;;;5.40;1.83;;;15.30;99.90;;;;;;5067076;28;39093;-78
2023/10/05 07:30:59;;;;;;;9.80;2.50;;;15.30;99.90;;;;;;5058155;28;38542;-79
2023/10/05 07:33:26;;;;;;;8.93;2.00;;;15.30;99.90;;;;;;5050736;28;37608;-79
2023/10/05 07:35:53;;;;;;;9.13;1.80;;;15.40;99.90;;;;;;5055545;28;38940;-79
2023/10/05 07:38:20;;;;;;;7.35;2.10;;;15.40;99.90;;;;;;5057486;28;38053;-79
2023/10/05 07:40:47;;;;;;;6.18;1.90;;;15.50;99.90;;;;;;5067787;28;38167;-79
2023/10/05 07:43:13;;;;;;;5.43;1.90;;;15.50;99.90;;;;;;5057204;28;36470;-78
2023/10/05 07:45:39;;;;;;;7.28;1.90;;;15.50;99.90;;;;;;5041858;28;38467;-79
2023/10/05 07:48:06;;;;;;;8.48;2.53;;;15.50;99.90;;;;;;5066093;28;38501;-79
2023/10/05 07:50:34;;;;;;;8.70;2.67;;;15.60;99.90;;;;;;5048029;28;37226;-79
2023/10/05 07:53:00;;;;;;;6.30;1.83;;;15.60;99.90;;;;;;5072707;28;37976;-79
2023/10/05 07:55:26;;;;;;;9.00;2.10;;;15.60;99.90;;;;;;5045329;28;38152;-79
2023/10/05 07:57:52;;;;;;;5.55;1.70;;;15.80;99.90;;;;;;5069209;28;39407;-79
2023/10/05 08:00:20;;;;;;;10.98;2.78;;;15.90;99.90;;;;;;5048831;28;38771;-79
2023/10/05 08:02:47;;;;;;;10.68;2.50;;;16.00;99.90;;;;;;5058966;28;37541;-79
2023/10/05 08:05:13;;;;;;;7.07;2.28;;;16.20;99.90;;;;;;5062308;28;38998;-78
2023/10/05 08:07:40;;;;;;;7.57;2.20;;;16.20;99.90;;;;;;5051147;28;39421;-77
2023/10/05 08:10:13;;;;;;;7.30;2.13;;;16.40;99.90;;;;;;5066329;28;39344;-79
2023/10/05 08:12:39;;;;;;;9.68;2.30;;;16.40;99.90;;;;;;5060793;28;36175;-76
2023/10/05 08:15:06;;;;;;;10.05;2.88;;;16.50;99.90;;;;;;5038481;28;37763;-78
2023/10/05 08:17:33;;;;;;;10.35;2.88;;;16.50;99.90;;;;;;5058291;28;40288;-79
2023/10/05 08:19:59;;;;;;;8.73;1.98;;;16.60;99.90;;;;;;5049840;28;38327;-79
2023/10/05 08:22:26;;;;;;;7.85;2.17;;;16.70;99.90;;;;;;5047611;28;37513;-78
2023/10/05 08:24:53;;;;;;;10.20;2.38;;;16.80;99.90;;;;;;5042119;28;39573;-79
2023/10/05 08:27:20;;;;;;;8.30;2.05;;;16.90;99.90;;;;;;5047707;28;37612;-79
2023/10/05 08:29:47;;;;;;;8.82;2.47;;;16.90;99.90;;;;;;5043839;28;37533;-79
2023/10/05 08:32:13;;;;;;;9.50;2.50;;;16.90;99.90;;;;;;5047704;28;36219;-79
2023/10/05 08:34:41;;;;;;;12.63;2.92;;;16.90;99.90;;;;;;5047593;28;37595;-80
2023/10/05 08:37:08;;;;;;;11.50;2.55;;;16.90;99.90;;;;;;5063859;28;37432;-80
2023/10/05 08:39:37;;;;;;;9.77;2.40;;;16.90;99.90;;;;;;5061410;28;38607;-80
2023/10/05 08:42:06;;;;;;;9.18;2.90;;;16.90;99.90;;;;;;5063282;28;37166;-80
2023/10/05 08:44:38;;;;;;;8.35;2.47;;;16.90;99.90;;;;;;5048457;28;37650;-80
2023/10/05 08:47:11;;;;;;;8.88;2.00;;;16.90;99.90;;;;;;5052003;28;37951;-80
2023/10/05 08:49:43;;;;;;;7.90;2.42;;;16.80;99.90;;;;;;5053297;28;37540;-80
2023/10/05 08:52:19;;;;;;;13.48;2.25;;;16.80;99.90;;;;;;5070899;28;37183;-80
2023/10/05 08:54:46;;;;;;;9.20;1.92;;;16.70;99.90;;;;;;5048567;28;38048;-80
2023/10/05 08:57:13;;;;;;;7.80;1.70;;;16.60;99.90;;;;;;5060516;28;38742;-78
2023/10/05 08:59:45;;;;;;;9.35;2.50;;;16.70;99.90;;;;;;5050939;28;37287;-78
2023/10/05 09:02:18;;;;;;;6.53;1.70;;;16.70;99.90;;;;;;5068638;28;38022;-78
2023/10/05 09:05:07;;;;;;;8.50;2.03;;;16.70;99.90;;;;;;5047257;28;37796;-79
2023/10/05 09:07:37;;;;;;;7.22;2.40;;;16.60;99.90;;;;;;5046699;28;47174;-80
2023/10/05 09:10:08;;;;;;;7.43;1.90;;;16.70;99.90;;;;;;5066231;28;39522;-80
2023/10/05 09:12:34;;;;;;;11.73;2.85;;;16.70;99.90;;;;;;5046504;28;47247;-78
2023/10/05 09:15:18;;;;;;;10.40;2.35;;;16.70;99.90;;;;;;5066164;28;38888;-80
2023/10/05 09:20:38;;;;;;;6.95;1.92;;;16.70;99.90;;;;;;5060390;28;49065;-79
2023/10/05 09:23:09;;;;;;;8.68;2.22;;;16.70;99.90;;;;;;5043877;28;36475;-79
2023/10/05 09:25:38;;;;;;;9.75;2.60;;;16.60;99.90;;;;;;5048092;28;37878;-79
2023/10/05 09:28:19;;;;;;;7.65;2.17;;;16.70;99.90;;;;;;5041028;28;38196;-79
2023/10/05 09:30:57;;;;;;;12.20;2.70;;;16.70;99.90;;;;;;5046948;28;37483;-79
2023/10/05 09:33:25;;;;;;;10.82;2.08;;;16.70;99.90;;;;;;5055607;28;37174;-78
2023/10/05 09:36:19;;;;;;;6.95;1.92;;;16.70;99.90;;;;;;5042879;28;37685;-79
2023/10/05 09:38:46;;;;;;;13.15;2.42;;;16.70;99.90;;;;;;5056419;28;48664;-79
2023/10/05 09:41:20;;;;;;;10.30;2.20;;;16.70;99.90;;;;;;5042149;28;37557;-80
2023/10/05 09:43:58;;;;;;;8.70;2.47;;;16.70;99.90;;;;;;5058987;28;37068;-79
2023/10/05 09:46:27;;;;;;;12.23;2.25;;;16.80;99.90;;;;;;5062020;28;39426;-79
2023/10/05 09:48:55;;;;;;;9.32;2.08;;;16.70;99.90;;;;;;5051200;28;37746;-79
2023/10/05 09:51:21;;;;;;;6.60;1.85;;;16.70;99.90;;;;;;5052500;28;37225;-80
2023/10/05 09:53:52;;;;;;;9.82;2.38;;;16.70;99.90;;;;;;5050951;28;37490;-79
2023/10/05 09:56:20;;;;;;;12.38;2.05;;;16.80;99.90;;;;;;5051173;28;39304;-79
2023/10/05 09:58:46;;;;;;;7.53;2.30;;;16.80;99.90;;;;;;5060427;28;38791;-79
2023/10/05 10:01:20;;;;;;;13.75;2.45;;;17.00;99.90;;;;;;5057588;28;37245;-78
2023/10/05 10:03:48;;;;;;;9.07;2.58;;;17.10;99.90;;;;;;5061623;28;37418;-79
2023/10/05 10:06:20;;;;;;;8.23;1.80;;;17.20;99.90;;;;;;5053219;28;38827;-79
2023/10/05 10:08:57;;;;;;;7.85;2.10;;;17.30;99.90;;;;;;5067227;28;38617;-79
2023/10/05 10:11:31;;;;;;;11.38;2.28;;;17.40;99.90;;;;;;5047121;28;38804;-79
2023/10/05 10:14:01;;;;;;;7.72;2.05;;;17.60;99.90;;;;;;5062675;28;37270;-79
2023/10/05 10:16:31;;;;;;;10.35;2.38;;;17.60;99.90;;;;;;5049429;28;45851;-79
2023/10/05 10:19:20;;;;;;;11.32;1.88;;;17.60;99.90;;;;;;5062684;28;38416;-79
2023/10/05 10:21:59;;;;;;;10.02;2.05;;;17.70;99.90;;;;;;5042445;28;47324;-79
2023/10/05 10:24:29;;;;;;;9.07;2.20;;;17.90;99.90;;;;;;5044767;28;36384;-79
2023/10/05 10:27:08;;;;;;;7.15;1.80;;;18.00;99.90;;;;;;5066509;28;38888;-79
2023/10/05 10:29:52;;;;;;;10.77;2.30;;;18.10;99.90;;;;;;5051490;28;47193;-79
2023/10/05 10:32:20;;;;;;;8.38;1.98;;;18.10;99.90;;;;;;5058492;28;38148;-79
2023/10/05 10:34:55;;;;;;;8.15;1.92;;;18.30;99.90;;;;;;5052666;28;35842;-79
2023/10/05 10:37:38;;;;;;;8.13;1.80;;;18.30;99.90;;;;;;5043723;28;37654;-80
2023/10/05 10:40:27;;;;;;;8.60;2.30;;;18.50;99.90;;;;;;5041336;28;37714;-79
2023/10/05 10:45:41;;;;;;;6.32;2.53;;;18.70;99.90;;;;;;5057133;28;48980;-81
2023/10/05 10:48:09;;;;;;;6.82;2.15;;;19.00;99.90;;;;;;5042935;28;38159;-81
2023/10/05 10:50:39;;;;;;;5.47;2.13;;;19.00;99.90;;;;;;5050795;28;37929;-80
2023/10/05 10:53:32;;;;;;;9.60;2.17;;;18.90;99.90;;;;;;5046711;28;38006;-81
2023/10/05 10:56:03;;;;;;;8.75;2.00;;;18.90;99.90;;;;;;5047272;28;36500;-81
2023/10/05 10:58:31;;;;;;;6.05;2.03;;;18.90;99.90;;;;;;5038059;28;46944;-80
2023/10/05 11:01:04;;;;;;;5.90;2.00;;;18.70;99.90;;;;;;5060876;28;38816;-81
2023/10/05 11:03:32;;;;;;;5.72;1.90;;;18.60;99.90;;;;;;5044697;28;47198;-81
2023/10/05 11:06:00;;;;;;;10.20;2.40;;;18.40;99.90;;;;;;5047935;28;37334;-81
2023/10/05 11:08:35;;;;;;;5.68;1.75;;;18.30;99.90;;;;;;5046835;28;47128;-81
2023/10/05 11:11:09;;;;;;;6.57;1.80;;;18.30;99.80;;;;;;5066858;28;39561;-81
2023/10/05 11:13:43;;;;;;;9.82;2.35;;;18.30;99.90;;;;;;5050721;28;37668;-80
2023/10/05 11:16:09;;;;;;;10.10;2.03;;;18.40;99.90;;;;;;5044551;28;36242;-80
2023/10/05 11:18:50;;;;;;;10.45;1.65;;;18.30;99.90;;;;;;5043919;28;38051;-80
2023/10/05 11:21:18;;;;;;;8.68;2.05;;;18.20;98.80;;;;;;5062003;28;39743;-80
2023/10/05 11:23:58;;;;;;;6.57;1.90;;;18.10;98.50;;;;;;5068468;28;38463;-81
2023/10/05 11:26:27;;;;;;;7.50;1.95;;;18.00;99.90;;;;;;5055751;28;37080;-79
2023/10/05 11:28:56;;;;;;;4.88;1.70;;;18.00;99.90;;;;;;5059504;28;38692;-79
2023/10/05 11:31:33;;;;;;;9.77;1.83;;;18.10;99.90;;;;;;5063975;28;40409;-79
2023/10/05 11:34:03;;;;;;;6.82;1.98;;;18.10;99.90;;;;;;5043934;28;37155;-79
2023/10/05 11:36:33;;;;;;;4.50;1.73;;;18.00;94.80;;;;;;5046738;28;46953;-79
2023/10/05 11:39:00;;;;;;;6.70;1.90;;;18.10;99.90;;;;;;5062105;28;38813;-82
2023/10/05 11:41:32;;;;;;;7.10;2.13;;;18.10;99.10;;;;;;5063597;28;47470;-81
2023/10/05 11:43:58;;;;;;;6.13;2.33;;;18.10;97.40;;;;;;5068660;28;37687;-80
2023/10/05 11:46:44;;;;;;;5.43;1.80;;;18.10;99.20;;;;;;5048889;28;35895;-80
2023/10/05 11:49:10;;;;;;;5.75;1.50;;;18.20;99.90;;;;;;5071565;28;38834;-80
2023/10/05 11:51:44;;;;;;;8.98;2.05;;;18.30;96.70;;;;;;5051106;28;38186;-80
2023/10/05 11:54:12;;;;;;;7.45;1.92;;;18.50;75.40;;;;;;5041907;28;38470;-81
2023/10/05 11:56:41;;;;;;;7.93;1.50;;;18.70;82.20;;;;;;5049707;28;36217;-81
2023/10/05 11:59:10;;;;;;;6.25;1.75;;;18.80;66.80;;;;;;5053552;28;37693;-81
2023/10/05 12:01:40;;;;;;;6.07;1.40;;;18.90;68.50;;;;;;5067583;28;39883;-81
2023/10/05 12:04:09;;;;;;;5.20;1.45;;;19.10;83.30;;;;;;5045116;28;37360;-81
2023/10/05 12:06:38;;;;;;;5.28;1.73;;;19.10;52.00;;;;;;5051129;28;38053;-81
2023/10/05 12:09:07;;;;;;;6.97;1.60;;;19.10;47.90;;;;;;5051678;28;38580;-81
2023/10/05 12:11:33;;;;;;;6.68;1.88;;;19.20;56.60;;;;;;5037571;28;38549;-80
2023/10/05 12:14:04;;;;;;;5.50;1.60;;;19.30;48.30;;;;;;5056645;28;38249;-81
2023/10/05 12:16:32;;;;;;;4.05;1.30;;;19.30;22.80;;;;;;5066436;28;48603;-80
2023/10/05 12:19:44;;;;;;;6.35;1.65;;;19.40;23.80;;;;;;5049142;28;37685;-81
2023/10/05 12:21:45;;;;;;;6.72;1.40;;;19.60;38.20;;;;;;5055512;28;48757;-80
2023/10/05 12:24:12;;;;;;;3.95;1.25;;;19.70;28.70;;;;;;5052329;28;38560;-81
2023/10/05 12:26:39;;;;;;;6.47;1.40;;;19.60;1.00;;;;;;5078197;28;36993;-81
2023/10/05 12:29:12;;;;;;;7.97;1.73;;;19.60;19.40;;;;;;5046692;28;37778;-81
2023/10/05 12:31:44;;;;;;;5.28;1.27;;;19.50;8.70;;;;;;5044085;28;37810;-82
2023/10/05 12:34:14;;;;;;;6.32;1.63;;;19.50;17.00;;;;;;5050487;28;37599;-81
2023/10/05 12:36:41;;;;;;;5.68;1.30;;;19.60;35.10;;;;;;5064873;28;36711;-81
2023/10/05 12:39:12;;;;;;;6.18;1.80;;;19.80;37.50;;;;;;5040247;28;37613;-81
2023/10/05 12:41:40;;;;;;;6.95;1.60;;;19.70;15.40;;;;;;5064667;28;40060;-81
2023/10/05 12:44:09;;;;;;;6.70;1.77;;;19.60;16.60;;;;;;5050340;28;38679;-81
2023/10/05 12:46:54;;;;;;;6.35;1.50;;;19.60;27.50;;;;;;5061877;28;37213;-81
2023/10/05 12:49:20;;;;;;;6.90;1.75;;;19.50;28.20;;;;;;5042643;28;37707;-81
2023/10/05 12:51:47;;;;;;;8.15;1.65;;;19.50;26.00;;;;;;5060574;28;39768;-81
2023/10/05 12:54:28;;;;;;;7.68;1.90;;;19.50;34.20;;;;;;5064366;28;38286;-81
2023/10/05 12:56:55;;;;;;;4.63;1.58;;;19.60;33.50;;;;;;5045465;28;37314;-81
2023/10/05 12:59:21;;;;;;;5.90;1.98;;;19.60;24.10;;;;;;5050941;28;37673;-81
2023/10/05 13:01:48;;;;;;;6.68;1.95;;;19.40;32.40;;;;;;5064392;28;39800;-79
2023/10/05 13:04:16;;;;;;;7.03;1.52;;;19.50;26.60;;;;;;5050173;28;37444;-79
2023/10/05 13:06:46;;;;;;;6.57;1.70;;;19.40;28.90;;;;;;5062607;28;38228;-80
2023/10/05 13:09:13;;;;;;;3.88;1.60;;;19.50;32.20;;;;;;5067248;28;38615;-79
2023/10/05 13:11:41;;;;;;;5.25;1.40;;;19.60;41.50;;;;;;5063833;28;39287;-81
2023/10/05 13:14:10;;;;;;;5.57;2.38;;;19.70;57.10;;;;;;5050302;28;36758;-80
2023/10/05 13:16:38;;;;;;;5.18;1.75;;;19.80;48.10;;;;;;5051692;28;35719;-80
2023/10/05 13:19:09;;;;;;;6.00;1.48;;;19.90;40.00;;;;;;5053443;28;38114;-80
2023/10/05 13:21:36;;;;;;;3.58;1.60;;;20.10;26.80;;;;;;5061948;28;38758;-80
2023/10/05 13:24:03;;;;;;;8.48;2.15;;;20.20;43.20;;;;;;5044928;28;37199;-80
2023/10/05 13:26:29;;;;;;;3.83;1.00;;;19.90;6.10;;;;;;5056989;28;37585;-80
2023/10/05 13:28:59;;;;;;;7.10;1.48;;;19.80;14.70;;;;;;5047805;28;37794;-80
2023/10/05 13:31:25;;;;;;;6.07;1.70;;;19.70;34.00;;;;;;5041680;28;38144;-79